Time;durP1;ratioP1;P1;durP2;ratioP2;P2;SDS_P1;SDS_P2;PMS_P1;PMS_P2;Temp;Humidity;BMP_temperature;BMP_pressure;BME280_temperature;BME280_humidity;BME280_pressure;Samples;Min_cycle;Max_cycle;Signal;HPM_P1;HPM_P2
2021/09/16 00:00:06;;;;;;;0.10;0.10;;;;;;;19.80;52.28;99169.75;5032772;28;20024;-79
2021/09/16 00:02:31;;;;;;;0.10;0.10;;;;;;;19.80;52.57;99174.41;5032292;28;20027;-79
2021/09/16 00:04:56;;;;;;;0.65;0.30;;;;;;;19.79;52.52;99178.25;5032027;28;20112;-81
2021/09/16 00:07:22;;;;;;;0.00;0.00;;;;;;;19.75;51.93;99167.25;5032423;28;20436;-80
2021/09/16 00:09:47;;;;;;;0.10;0.10;;;;;;;19.72;52.01;99172.56;5032221;28;20490;-81
2021/09/16 00:12:13;;;;;;;0.10;0.10;;;;;;;19.68;51.68;99169.72;5031991;28;20056;-80
2021/09/16 00:14:38;;;;;;;0.10;0.10;;;;;;;19.64;51.21;99172.31;5028234;28;20026;-78
2021/09/16 00:17:04;;;;;;;0.10;0.10;;;;;;;19.59;51.16;99166.28;5012737;28;20579;-78
2021/09/16 00:19:29;;;;;;;0.00;0.00;;;;;;;19.56;51.13;99169.69;5024164;28;20029;-78
2021/09/16 00:21:54;;;;;;;0.03;0.03;;;;;;;19.54;51.36;99178.13;5033290;28;20079;-78
2021/09/16 00:24:20;;;;;;;0.10;0.10;;;;;;;19.51;51.11;99176.09;5033487;28;20022;-77
2021/09/16 00:26:45;;;;;;;0.00;0.00;;;;;;;19.45;50.93;99170.06;5033190;28;20473;-77
2021/09/16 00:29:11;;;;;;;0.00;0.00;;;;;;;19.42;51.10;99164.53;5032856;28;20022;-75
2021/09/16 00:31:37;;;;;;;0.00;0.00;;;;;;;19.40;51.32;99153.22;5032465;28;20047;-78
2021/09/16 00:34:03;;;;;;;0.00;0.00;;;;;;;19.35;51.75;99155.00;5031194;28;20025;-76
2021/09/16 00:36:28;;;;;;;0.10;0.10;;;;;;;19.26;51.79;99148.06;5032653;28;20025;-77
2021/09/16 00:38:54;;;;;;;0.10;0.10;;;;;;;19.18;51.87;99152.44;5031324;28;20018;-82
2021/09/16 00:41:20;;;;;;;0.00;0.00;;;;;;;19.14;52.50;99156.91;5031626;28;20585;-81
2021/09/16 00:43:45;;;;;;;0.10;0.10;;;;;;;19.09;52.56;99149.00;5031447;28;20017;-76
2021/09/16 00:46:11;;;;;;;0.05;0.05;;;;;;;19.05;52.84;99146.16;5030466;28;20037;-76
2021/09/16 00:48:36;;;;;;;0.05;0.05;;;;;;;19.04;52.77;99148.06;5032420;28;20500;-76
2021/09/16 00:51:01;;;;;;;0.00;0.00;;;;;;;19.02;53.04;99144.13;5032208;28;20028;-77
2021/09/16 00:53:29;;;;;;;0.10;0.10;;;;;;;19.00;53.04;99143.63;5031426;28;20492;-77
2021/09/16 00:55:56;;;;;;;0.00;0.00;;;;;;;18.96;52.96;99151.63;5032100;28;20029;-78
2021/09/16 00:58:24;;;;;;;0.10;0.10;;;;;;;18.90;52.67;99142.09;5031228;28;20523;-77
2021/09/16 01:00:49;;;;;;;0.10;0.10;;;;;;;18.90;52.53;99150.22;5029994;28;20374;-76
2021/09/16 01:03:15;;;;;;;0.10;0.10;;;;;;;18.85;52.76;99145.00;5030436;28;20275;-78
2021/09/16 01:05:40;;;;;;;0.10;0.10;;;;;;;18.82;52.84;99141.03;5032095;28;20093;-76
2021/09/16 01:08:06;;;;;;;0.10;0.10;;;;;;;18.80;52.74;99142.47;5030934;28;20032;-79
2021/09/16 01:10:32;;;;;;;0.10;0.10;;;;;;;18.75;52.79;99139.94;5031138;28;20025;-77
2021/09/16 01:12:58;;;;;;;0.10;0.10;;;;;;;18.71;52.56;99135.19;5030807;28;20029;-80
2021/09/16 01:15:23;;;;;;;0.30;0.30;;;;;;;18.70;52.50;99143.63;5030240;28;20040;-81
2021/09/16 01:17:49;;;;;;;0.00;0.00;;;;;;;18.60;52.86;99139.38;5032288;28;20186;-81
2021/09/16 01:20:15;;;;;;;0.10;0.10;;;;;;;18.59;53.08;99137.81;5030429;28;20395;-80
2021/09/16 01:22:41;;;;;;;0.10;0.10;;;;;;;18.55;52.98;99148.50;5030801;28;20095;-77
2021/09/16 01:25:08;;;;;;;0.20;0.20;;;;;;;18.53;53.09;99147.25;5031754;28;20464;-89
2021/09/16 01:27:34;;;;;;;0.00;0.00;;;;;;;18.51;53.58;99146.78;5030633;28;20087;-77
2021/09/16 01:30:03;;;;;;;0.10;0.10;;;;;;;18.49;53.56;99154.44;5030689;28;20044;-79
2021/09/16 01:32:28;;;;;;;0.10;0.10;;;;;;;18.42;53.71;99152.25;5030289;28;20026;-79
2021/09/16 01:34:54;;;;;;;0.10;0.10;;;;;;;18.33;54.03;99159.59;5031988;28;20022;-78
2021/09/16 01:37:19;;;;;;;0.10;0.10;;;;;;;18.31;53.93;99151.81;5030132;28;20025;-77
2021/09/16 01:39:45;;;;;;;0.10;0.10;;;;;;;18.28;54.03;99149.75;5031733;28;20029;-78
2021/09/16 01:42:10;;;;;;;0.10;0.10;;;;;;;18.23;54.29;99155.34;5031429;28;20018;-77
2021/09/16 01:44:36;;;;;;;0.10;0.10;;;;;;;18.23;54.62;99161.53;5027510;28;20033;-79
2021/09/16 01:47:04;;;;;;;0.00;0.00;;;;;;;18.24;54.57;99173.16;5010505;28;20040;-81
2021/09/16 01:49:30;;;;;;;0.17;0.17;;;;;;;18.24;54.62;99175.88;5010747;28;20112;-80
2021/09/16 01:51:56;;;;;;;0.10;0.10;;;;;;;18.19;54.87;99167.94;5010453;28;20080;-79
2021/09/16 01:54:22;;;;;;;0.10;0.10;;;;;;;18.18;54.94;99169.06;5012088;28;20485;-78
2021/09/16 01:56:48;;;;;;;0.10;0.10;;;;;;;18.16;55.05;99169.38;5011630;28;20037;-79
2021/09/16 01:59:13;;;;;;;0.10;0.10;;;;;;;18.15;54.95;99169.69;5011880;28;20037;-79
2021/09/16 02:01:39;;;;;;;0.10;0.10;;;;;;;18.10;55.26;99165.25;5010379;28;20128;-78
2021/09/16 02:04:04;;;;;;;0.10;0.10;;;;;;;18.11;55.40;99168.75;5011492;28;20022;-81
2021/09/16 02:06:30;;;;;;;0.10;0.10;;;;;;;18.05;55.72;99160.00;5010341;28;20026;-77
2021/09/16 02:08:55;;;;;;;0.10;0.10;;;;;;;18.07;55.82;99161.28;5011612;28;20366;-78
2021/09/16 02:11:20;;;;;;;0.10;0.10;;;;;;;18.04;56.15;99153.00;5011331;28;20026;-78
2021/09/16 02:13:46;;;;;;;0.05;0.05;;;;;;;18.05;56.15;99165.41;5010238;28;20021;-81
2021/09/16 02:16:11;;;;;;;0.10;0.10;;;;;;;18.05;55.88;99157.31;5010056;28;20120;-80
2021/09/16 02:18:37;;;;;;;0.00;0.00;;;;;;;18.01;55.26;99167.97;5009970;28;20046;-79
2021/09/16 02:21:02;;;;;;;0.10;0.10;;;;;;;17.95;54.81;99149.53;5009894;28;20022;-80
2021/09/16 02:23:28;;;;;;;0.10;0.10;;;;;;;17.98;54.54;99159.72;5010222;28;20029;-79
2021/09/16 02:25:53;;;;;;;0.10;0.10;;;;;;;17.91;54.77;99158.25;5010318;28;20109;-78
2021/09/16 02:28:19;;;;;;;0.10;0.10;;;;;;;17.87;54.92;99159.22;5010936;28;20026;-78
2021/09/16 02:30:45;;;;;;;0.10;0.10;;;;;;;17.82;55.10;99162.91;5025848;28;20419;-78
2021/09/16 02:33:11;;;;;;;0.10;0.10;;;;;;;17.77;55.37;99155.75;5031078;28;20080;-77
2021/09/16 02:35:36;;;;;;;0.00;0.00;;;;;;;17.73;55.34;99160.19;5031088;28;20075;-78
2021/09/16 02:38:02;;;;;;;0.10;0.10;;;;;;;17.63;55.46;99149.72;5029496;28;20029;-78
2021/09/16 02:40:27;;;;;;;0.00;0.00;;;;;;;17.65;55.68;99158.31;5029735;28;20048;-78
2021/09/16 02:42:53;;;;;;;0.20;0.20;;;;;;;17.59;55.78;99154.97;5029736;28;20029;-76
2021/09/16 02:45:18;;;;;;;0.10;0.10;;;;;;;17.58;55.86;99164.22;5028529;28;20409;-80
2021/09/16 02:47:44;;;;;;;0.05;0.05;;;;;;;17.56;56.07;99160.22;5029697;28;20021;-78
2021/09/16 02:50:09;;;;;;;0.10;0.10;;;;;;;17.55;56.08;99153.22;5030507;28;20025;-79
2021/09/16 02:52:35;;;;;;;0.00;0.00;;;;;;;17.53;56.33;99150.84;5029656;28;20492;-79
2021/09/16 02:55:00;;;;;;;0.05;0.05;;;;;;;17.54;56.42;99154.34;5029213;28;20018;-81
2021/09/16 02:57:26;;;;;;;0.00;0.00;;;;;;;17.49;56.36;99133.69;5029680;28;20017;-79
2021/09/16 02:59:51;;;;;;;0.00;0.00;;;;;;;17.49;56.68;99141.81;5023039;28;20558;-78
2021/09/16 03:02:16;;;;;;;0.10;0.10;;;;;;;17.49;56.45;99147.22;5009804;28;20034;-80
2021/09/16 03:04:42;;;;;;;0.05;0.05;;;;;;;17.46;56.60;99147.84;5011445;28;20029;-79
2021/09/16 03:07:07;;;;;;;0.10;0.10;;;;;;;17.47;56.70;99154.03;5009459;28;20057;-78
2021/09/16 03:09:33;;;;;;;0.08;0.08;;;;;;;17.45;56.69;99151.66;5009759;28;20028;-82
2021/09/16 03:11:58;;;;;;;0.10;0.10;;;;;;;17.43;56.85;99151.16;5009683;28;20052;-80
2021/09/16 03:14:23;;;;;;;0.10;0.10;;;;;;;17.42;56.87;99158.50;5009527;28;20555;-78
2021/09/16 03:16:49;;;;;;;0.10;0.10;;;;;;;17.40;56.58;99152.59;5009556;28;20469;-78
2021/09/16 03:19:14;;;;;;;0.10;0.10;;;;;;;17.33;56.86;99159.63;5008787;28;20124;-78
2021/09/16 03:21:40;;;;;;;0.10;0.10;;;;;;;17.30;56.53;99155.63;5011157;28;20113;-77
2021/09/16 03:24:05;;;;;;;0.20;0.20;;;;;;;17.20;56.90;99145.94;5009378;28;20026;-77
2021/09/16 03:26:31;;;;;;;0.10;0.10;;;;;;;17.16;57.06;99144.97;5014103;28;20465;-78
2021/09/16 03:28:56;;;;;;;0.20;0.20;;;;;;;17.12;57.51;99150.25;5013259;28;20030;-78
2021/09/16 03:31:21;;;;;;;0.08;0.08;;;;;;;17.03;57.43;99148.63;5012719;28;20506;-78
2021/09/16 03:33:47;;;;;;;0.10;0.10;;;;;;;17.05;57.89;99154.50;5012967;28;20113;-78
2021/09/16 03:36:12;;;;;;;0.17;0.17;;;;;;;17.01;57.78;99156.25;5012784;28;20457;-78
2021/09/16 03:38:38;;;;;;;0.10;0.10;;;;;;;17.01;57.44;99167.06;5015212;28;20026;-79
2021/09/16 03:41:03;;;;;;;0.10;0.10;;;;;;;16.98;57.54;99162.28;5012785;28;20200;-80
2021/09/16 03:43:28;;;;;;;0.10;0.10;;;;;;;16.95;57.57;99163.72;5012884;28;20393;-78
2021/09/16 03:45:55;;;;;;;0.00;0.00;;;;;;;16.96;57.61;99174.19;5017066;28;20119;-79
2021/09/16 03:48:21;;;;;;;0.00;0.00;;;;;;;16.93;57.57;99165.91;5017506;28;20078;-83
2021/09/16 03:50:46;;;;;;;0.17;0.17;;;;;;;16.93;57.99;99172.13;5012831;28;20117;-86
2021/09/16 03:53:12;;;;;;;0.10;0.10;;;;;;;16.94;57.88;99173.72;5015489;28;20101;-79
2021/09/16 03:55:37;;;;;;;0.10;0.10;;;;;;;16.94;58.11;99172.91;5012431;28;20048;-79
2021/09/16 03:58:03;;;;;;;0.10;0.10;;;;;;;16.95;58.20;99178.03;5013468;28;20037;-79
2021/09/16 04:00:28;;;;;;;0.00;0.00;;;;;;;16.95;58.49;99171.81;5012294;28;20076;-79
2021/09/16 04:02:54;;;;;;;0.05;0.05;;;;;;;16.95;58.41;99175.34;5014046;28;20461;-79
2021/09/16 04:05:19;;;;;;;0.10;0.10;;;;;;;16.93;58.26;99165.91;5013552;28;20034;-79
2021/09/16 04:07:44;;;;;;;0.10;0.10;;;;;;;16.95;58.20;99180.72;5016470;28;20404;-82
2021/09/16 04:10:11;;;;;;;0.10;0.10;;;;;;;16.99;58.28;99180.09;5031947;28;20029;-82
2021/09/16 04:12:37;;;;;;;0.10;0.10;;;;;;;17.04;58.60;99186.16;5024554;28;20038;-82
2021/09/16 04:15:04;;;;;;;0.10;0.10;;;;;;;17.12;58.52;99190.78;5012788;28;20464;-79
2021/09/16 04:17:30;;;;;;;0.08;0.08;;;;;;;17.22;58.04;99178.03;5027391;28;20497;-81
2021/09/16 04:19:55;;;;;;;0.10;0.10;;;;;;;17.36;58.04;99181.41;5032057;28;20028;-80
2021/09/16 04:22:20;;;;;;;0.00;0.00;;;;;;;17.48;57.91;99182.66;5021870;28;20029;-83
2021/09/16 04:24:46;;;;;;;0.08;0.08;;;;;;;17.60;57.23;99186.31;5018036;28;20523;-78
2021/09/16 04:27:13;;;;;;;0.10;0.10;;;;;;;17.80;57.35;99184.06;5017132;28;20026;-78
2021/09/16 04:29:40;;;;;;;0.00;0.00;;;;;;;17.97;56.79;99193.28;5029145;28;20079;-79
2021/09/16 04:32:06;;;;;;;0.00;0.00;;;;;;;18.18;56.41;99188.78;5021337;28;20075;-79
2021/09/16 04:34:32;;;;;;;0.10;0.10;;;;;;;18.39;55.45;99185.38;5032527;28;20464;-76
2021/09/16 04:36:57;;;;;;;0.10;0.10;;;;;;;18.60;54.67;99188.13;5031404;28;20116;-77
2021/09/16 04:39:23;;;;;;;0.00;0.00;;;;;;;18.78;54.11;99186.13;5032219;28;20425;-77
2021/09/16 04:41:48;;;;;;;0.10;0.10;;;;;;;19.01;53.41;99185.88;5033041;28;20373;-78
2021/09/16 04:44:14;;;;;;;0.10;0.10;;;;;;;19.23;53.14;99186.69;5032242;28;20024;-79
2021/09/16 04:46:39;;;;;;;0.08;0.08;;;;;;;19.46;52.50;99190.66;5031061;28;20026;-77
2021/09/16 04:49:05;;;;;;;0.00;0.00;;;;;;;19.72;51.82;99197.75;5031313;28;20108;-79
2021/09/16 04:51:31;;;;;;;0.13;0.13;;;;;;;19.93;51.21;99194.25;5032297;28;20036;-79
2021/09/16 04:53:56;;;;;;;0.10;0.10;;;;;;;20.18;50.38;99197.81;5032533;28;20036;-79
2021/09/16 04:56:21;;;;;;;0.10;0.10;;;;;;;20.45;49.91;99199.09;5032022;28;20021;-78
2021/09/16 04:58:47;;;;;;;0.00;0.00;;;;;;;20.73;49.02;99198.44;5031400;28;20029;-78
2021/09/16 05:01:12;;;;;;;0.00;0.00;;;;;;;21.02;48.30;99195.81;5031145;28;20429;-78
2021/09/16 05:03:38;;;;;;;0.10;0.10;;;;;;;21.28;47.79;99193.50;5032418;28;20096;-79
2021/09/16 05:06:03;;;;;;;0.00;0.00;;;;;;;21.55;46.90;99188.41;5032380;28;20461;-78
2021/09/16 05:08:28;;;;;;;0.05;0.05;;;;;;;21.77;46.42;99182.81;5031537;28;20017;-78
2021/09/16 05:10:54;;;;;;;0.00;0.00;;;;;;;22.01;46.06;99185.41;5031655;28;20116;-78
2021/09/16 05:13:19;;;;;;;0.20;0.20;;;;;;;22.28;45.63;99184.91;5031866;28;20390;-78
2021/09/16 05:15:45;;;;;;;0.10;0.10;;;;;;;22.56;44.86;99184.84;5032299;28;20448;-78
2021/09/16 05:18:10;;;;;;;0.00;0.00;;;;;;;22.78;44.35;99180.66;5030313;28;20049;-78
2021/09/16 05:20:36;;;;;;;0.20;0.20;;;;;;;23.06;43.74;99184.38;5032160;28;20059;-78
2021/09/16 05:23:01;;;;;;;0.10;0.10;;;;;;;23.26;43.17;99177.03;5032005;28;20377;-77
2021/09/16 05:25:26;;;;;;;0.00;0.00;;;;;;;23.53;42.73;99188.09;5028193;28;20045;-77
2021/09/16 05:27:52;;;;;;;0.00;0.00;;;;;;;23.74;42.31;99183.06;5030717;28;20032;-78
2021/09/16 05:30:18;;;;;;;0.00;0.00;;;;;;;23.94;41.86;99180.31;5030309;28;20111;-79
2021/09/16 05:32:43;;;;;;;0.00;0.00;;;;;;;24.18;41.57;99181.13;5031927;28;20025;-77
2021/09/16 05:35:09;;;;;;;0.03;0.03;;;;;;;24.35;41.12;99169.72;5031854;28;20105;-76
2021/09/16 05:37:35;;;;;;;0.00;0.00;;;;;;;24.53;40.82;99177.38;5031930;28;20431;-77
2021/09/16 05:40:00;;;;;;;0.10;0.10;;;;;;;24.69;40.89;99177.25;5031880;28;20357;-78
2021/09/16 05:42:26;;;;;;;0.03;0.03;;;;;;;24.89;40.60;99177.94;5031693;28;20026;-78
2021/09/16 05:44:53;;;;;;;0.20;0.10;;;;;;;24.98;40.04;99180.41;5030461;28;20495;-76
2021/09/16 05:47:19;;;;;;;0.00;0.00;;;;;;;25.05;39.98;99175.81;5031369;28;20083;-77
2021/09/16 05:49:44;;;;;;;0.00;0.00;;;;;;;25.08;40.03;99177.81;5030437;28;20424;-79
2021/09/16 05:52:10;;;;;;;0.00;0.00;;;;;;;25.12;40.07;99177.88;5029838;28;20076;-77
2021/09/16 05:54:35;;;;;;;0.00;0.00;;;;;;;25.20;39.99;99181.47;5031411;28;20032;-77
2021/09/16 05:57:01;;;;;;;0.00;0.00;;;;;;;25.24;39.92;99174.09;5031414;28;20029;-79
2021/09/16 05:59:26;;;;;;;0.00;0.00;;;;;;;25.30;39.62;99180.03;5030030;28;20499;-76
2021/09/16 06:01:52;;;;;;;0.00;0.00;;;;;;;25.36;39.45;99171.13;5031440;28;20465;-77
2021/09/16 06:04:17;;;;;;;0.00;0.00;;;;;;;25.41;39.55;99178.25;5031054;28;20396;-79
2021/09/16 06:06:42;;;;;;;0.05;0.05;;;;;;;25.48;39.07;99174.81;5031926;28;20487;-79
2021/09/16 06:09:08;;;;;;;0.00;0.00;;;;;;;25.56;39.19;99185.47;5031237;28;20021;-78
2021/09/16 06:11:33;;;;;;;0.00;0.00;;;;;;;25.65;39.04;99179.69;5031349;28;20036;-79
2021/09/16 06:13:59;;;;;;;0.00;0.00;;;;;;;25.72;39.10;99190.72;5030248;28;20598;-77
2021/09/16 06:16:24;;;;;;;0.00;0.00;;;;;;;25.81;39.02;99192.38;5031300;28;20037;-77
2021/09/16 06:18:50;;;;;;;0.00;0.00;;;;;;;25.86;39.19;99192.81;5031048;28;20413;-77
2021/09/16 06:21:16;;;;;;;0.00;0.00;;;;;;;25.98;38.87;99194.50;5029609;28;20018;-77
2021/09/16 06:23:42;;;;;;;0.00;0.00;;;;;;;26.01;38.65;99198.44;5031426;28;20025;-77
2021/09/16 06:26:07;;;;;;;0.00;0.00;;;;;;;26.04;38.95;99203.19;5030989;28;20021;-77
2021/09/16 06:28:33;;;;;;;0.00;0.00;;;;;;;26.15;38.83;99198.59;5030660;28;20033;-79
2021/09/16 06:30:58;;;;;;;0.47;0.38;;;;;;;26.21;38.96;99201.81;5029607;28;20504;-79
2021/09/16 06:33:24;;;;;;;0.10;0.10;;;;;;;26.30;38.46;99199.50;5029619;28;20035;-78
2021/09/16 06:35:49;;;;;;;0.00;0.00;;;;;;;26.28;38.30;99204.59;5029868;28;20018;-79
2021/09/16 06:38:14;;;;;;;0.00;0.00;;;;;;;26.30;38.20;99198.75;5029466;28;20025;-79
2021/09/16 06:40:40;;;;;;;0.10;0.10;;;;;;;26.29;37.83;99197.97;5031276;28;20075;-78
2021/09/16 06:43:05;;;;;;;0.00;0.00;;;;;;;26.26;37.79;99197.94;5029867;28;20357;-78
2021/09/16 06:45:31;;;;;;;0.00;0.00;;;;;;;26.17;37.91;99199.03;5029519;28;20024;-78
2021/09/16 06:47:56;;;;;;;0.00;0.00;;;;;;;26.18;37.84;99202.53;5031226;28;20021;-79
2021/09/16 06:50:22;;;;;;;0.05;0.05;;;;;;;26.19;37.75;99198.66;5029480;28;20104;-77
2021/09/16 06:52:47;;;;;;;0.17;0.17;;;;;;;26.21;37.50;99208.06;5029671;28;20021;-78
2021/09/16 06:55:13;;;;;;;0.00;0.00;;;;;;;26.20;36.75;99203.75;5029476;28;20032;-79
2021/09/16 06:57:38;;;;;;;0.20;0.20;;;;;;;26.14;37.07;99209.97;5029554;28;20041;-78
2021/09/16 07:00:05;;;;;;;0.20;0.20;;;;;;;26.15;37.62;99197.84;5030920;28;20017;-77
2021/09/16 07:02:31;;;;;;;0.00;0.00;;;;;;;26.16;36.87;99205.66;5034137;28;20385;-77
2021/09/16 07:04:56;;;;;;;0.00;0.00;;;;;;;26.24;36.77;99206.50;5033221;28;20051;-77
2021/09/16 07:07:22;;;;;;;0.03;0.03;;;;;;;26.26;36.55;99200.69;5034335;28;20448;-77
2021/09/16 07:09:47;;;;;;;0.00;0.00;;;;;;;26.31;36.53;99209.31;5034530;28;20026;-78
2021/09/16 07:12:13;;;;;;;0.20;0.20;;;;;;;26.31;36.55;99198.34;5033185;28;20028;-77
2021/09/16 07:14:40;;;;;;;0.10;0.10;;;;;;;26.33;35.88;99198.78;5033966;28;20076;-77
2021/09/16 07:17:06;;;;;;;0.00;0.00;;;;;;;26.37;35.77;99199.56;5034190;28;20091;-77
2021/09/16 07:19:32;;;;;;;0.00;0.00;;;;;;;26.40;35.43;99210.97;5034472;28;20021;-77
2021/09/16 07:21:57;;;;;;;0.10;0.10;;;;;;;26.44;35.17;99198.06;5034107;28;20036;-77
2021/09/16 07:24:23;;;;;;;0.28;0.28;;;;;;;26.47;35.05;99200.06;5034124;28;20021;-77
2021/09/16 07:26:52;;;;;;;0.00;0.00;;;;;;;26.48;35.41;99201.63;5034506;28;20120;-77
2021/09/16 07:29:18;;;;;;;0.52;0.08;;;;;;;26.58;35.53;99211.88;5034008;28;20029;-78
2021/09/16 07:31:44;;;;;;;0.30;0.20;;;;;;;26.68;34.99;99210.38;5034046;28;20030;-77
2021/09/16 07:34:09;;;;;;;0.00;0.00;;;;;;;26.73;35.00;99221.00;5033918;28;20025;-77
2021/09/16 07:36:35;;;;;;;0.03;0.03;;;;;;;26.75;34.52;99217.94;5033634;28;20082;-77
2021/09/16 07:39:00;;;;;;;0.32;0.32;;;;;;;26.76;34.55;99217.53;5033858;28;20171;-78
2021/09/16 07:41:26;;;;;;;0.00;0.00;;;;;;;26.76;34.64;99223.03;5032797;28;20051;-78
2021/09/16 07:43:51;;;;;;;0.00;0.00;;;;;;;26.74;34.59;99221.81;5034166;28;20021;-78
2021/09/16 07:46:17;;;;;;;0.20;0.20;;;;;;;26.81;35.06;99225.41;5033648;28;20028;-78
2021/09/16 07:48:42;;;;;;;0.00;0.00;;;;;;;26.81;34.54;99217.16;5034315;28;20028;-78
2021/09/16 07:51:08;;;;;;;0.00;0.00;;;;;;;26.87;34.64;99225.03;5033602;28;20030;-78
2021/09/16 07:53:33;;;;;;;0.20;0.20;;;;;;;26.80;34.46;99220.31;5033723;28;20028;-78
2021/09/16 07:55:59;;;;;;;0.00;0.00;;;;;;;26.80;34.77;99214.81;5032474;28;20108;-78
2021/09/16 07:58:25;;;;;;;0.00;0.00;;;;;;;26.86;35.08;99215.25;5033397;28;20491;-78
2021/09/16 08:00:53;;;;;;;0.47;0.40;;;;;;;26.89;34.97;99209.78;5032427;28;20029;-78
2021/09/16 08:03:19;;;;;;;0.10;0.10;;;;;;;26.94;35.17;99214.91;5033412;28;20022;-78
2021/09/16 08:05:45;;;;;;;0.20;0.20;;;;;;;26.98;35.28;99215.72;5033651;28;20040;-78
2021/09/16 08:08:11;;;;;;;0.20;0.20;;;;;;;27.07;35.09;99217.34;5033689;28;20123;-78
2021/09/16 08:10:36;;;;;;;0.00;0.00;;;;;;;27.10;34.67;99211.06;5033194;28;20175;-78
2021/09/16 08:13:02;;;;;;;0.00;0.00;;;;;;;27.21;34.46;99211.94;5032105;28;20037;-78
2021/09/16 08:15:28;;;;;;;0.00;0.00;;;;;;;27.24;34.62;99218.59;5031737;28;20068;-78
2021/09/16 08:17:53;;;;;;;0.05;0.05;;;;;;;27.24;34.87;99202.13;5032859;28;20041;-78
2021/09/16 08:20:19;;;;;;;0.17;0.17;;;;;;;27.34;34.47;99204.13;5031788;28;20053;-78
2021/09/16 08:22:45;;;;;;;0.70;0.22;;;;;;;27.36;34.32;99196.28;5033667;28;20033;-78
2021/09/16 08:25:13;;;;;;;0.90;0.45;;;;;;;27.44;34.28;99208.09;5032024;28;20033;-78
2021/09/16 08:27:39;;;;;;;5.43;0.55;;;;;;;27.45;34.15;99202.25;5032983;28;20088;-78
2021/09/16 08:30:07;;;;;;;0.00;0.00;;;;;;;27.50;33.79;99200.28;5033126;28;20517;-78
2021/09/16 08:32:33;;;;;;;0.00;0.00;;;;;;;27.52;33.61;99206.97;5032857;28;20021;-78
2021/09/16 08:34:59;;;;;;;0.13;0.13;;;;;;;27.50;33.84;99197.53;5033091;28;20079;-78
2021/09/16 08:37:24;;;;;;;0.00;0.00;;;;;;;27.49;34.45;99191.28;5032504;28;20430;-78
2021/09/16 08:39:50;;;;;;;0.00;0.00;;;;;;;27.50;33.98;99187.34;5031822;28;20186;-78
2021/09/16 08:42:16;;;;;;;0.20;0.20;;;;;;;27.48;33.59;99182.25;5031509;28;20055;-78
2021/09/16 08:44:42;;;;;;;0.03;0.03;;;;;;;27.42;34.31;99180.28;5031402;28;20021;-78
2021/09/16 08:47:10;;;;;;;0.10;0.10;;;;;;;27.42;34.44;99181.03;5031611;28;20037;-78
2021/09/16 08:49:36;;;;;;;0.10;0.10;;;;;;;27.42;34.05;99180.28;5032754;28;20153;-78
2021/09/16 08:52:01;;;;;;;0.10;0.10;;;;;;;27.37;34.37;99175.09;5032667;28;20177;-78
2021/09/16 08:54:29;;;;;;;0.22;0.22;;;;;;;27.36;34.29;99174.31;5032628;28;20371;-78
2021/09/16 08:56:54;;;;;;;0.00;0.00;;;;;;;27.41;34.32;99175.94;5031206;28;20025;-78
2021/09/16 08:59:20;;;;;;;0.10;0.10;;;;;;;27.42;33.74;99172.03;5030996;28;20428;-78
2021/09/16 09:01:46;;;;;;;0.20;0.20;;;;;;;27.44;34.00;99169.66;5031333;28;20025;-78
2021/09/16 09:04:12;;;;;;;1.02;0.30;;;;;;;27.51;33.67;99171.66;5032421;28;20464;-78
2021/09/16 09:06:38;;;;;;;0.05;0.05;;;;;;;27.50;33.62;99164.59;5032278;28;20032;-78
2021/09/16 09:09:17;;;;;;;0.00;0.00;;;;;;;27.57;33.49;99168.13;5032703;28;20029;-78
2021/09/16 09:11:54;;;;;;;0.47;0.47;;;;;;;27.62;33.25;99164.22;5032113;28;20045;-79
2021/09/16 09:14:21;;;;;;;0.00;0.00;;;;;;;27.61;33.38;99163.44;5032105;28;20017;-78
2021/09/16 09:16:47;;;;;;;0.00;0.00;;;;;;;27.68;33.67;99159.16;5032284;28;20053;-78
2021/09/16 09:19:16;;;;;;;0.00;0.00;;;;;;;27.73;33.41;99154.03;5032182;28;20038;-78
2021/09/16 09:21:42;;;;;;;0.00;0.00;;;;;;;27.81;33.35;99152.09;5031646;28;20457;-78
2021/09/16 09:24:07;;;;;;;0.08;0.08;;;;;;;27.82;32.86;99148.19;5030249;28;20021;-79
2021/09/16 09:26:34;;;;;;;0.00;0.00;;;;;;;27.87;33.14;99153.28;5030539;28;20100;-78
2021/09/16 09:29:06;;;;;;;0.00;0.00;;;;;;;27.96;33.12;99147.41;5031606;28;20439;-78
2021/09/16 09:31:32;;;;;;;0.35;0.15;;;;;;;28.02;32.94;99147.81;5031766;28;20018;-78
2021/09/16 09:33:57;;;;;;;0.10;0.10;;;;;;;28.05;32.89;99147.84;5032218;28;20452;-78
2021/09/16 09:36:23;;;;;;;0.00;0.00;;;;;;;28.12;33.06;99144.31;5030456;28;20017;-78
2021/09/16 09:38:48;;;;;;;0.00;0.00;;;;;;;28.19;32.37;99149.03;5030427;28;20443;-78
2021/09/16 09:41:26;;;;;;;0.43;0.43;;;;;;;28.18;32.72;99139.19;5030533;28;20022;-78
2021/09/16 09:44:07;;;;;;;0.38;0.38;;;;;;;28.14;32.37;99141.16;5030616;28;20029;-78
2021/09/16 09:46:41;;;;;;;0.20;0.10;;;;;;;28.14;32.38;99141.94;5031660;28;20516;-78
2021/09/16 09:49:09;;;;;;;0.10;0.10;;;;;;;28.11;32.56;99137.22;5031394;28;20053;-78
2021/09/16 09:51:53;;;;;;;0.38;0.38;;;;;;;28.09;32.26;99134.88;5031504;28;20388;-78
2021/09/16 09:54:32;;;;;;;0.08;0.08;;;;;;;28.05;32.61;99128.59;5030401;28;20025;-78
2021/09/16 09:57:11;;;;;;;0.13;0.13;;;;;;;28.07;32.60;99128.22;5031730;28;20032;-78
2021/09/16 09:59:49;;;;;;;0.00;0.00;;;;;;;28.08;32.44;99125.06;5031348;28;20029;-78
2021/09/16 10:02:15;;;;;;;0.10;0.10;;;;;;;28.12;32.78;99125.06;5031087;28;20021;-78
2021/09/16 10:04:42;;;;;;;0.00;0.00;;;;;;;28.17;32.86;99116.41;5031285;28;20490;-77
2021/09/16 10:07:08;;;;;;;0.00;0.00;;;;;;;28.22;32.63;99127.03;5031304;28;20025;-80
2021/09/16 10:09:34;;;;;;;0.03;0.03;;;;;;;28.23;32.04;99114.06;5029913;28;20520;-77
2021/09/16 10:11:59;;;;;;;0.10;0.10;;;;;;;28.28;31.86;99119.16;5031337;28;20029;-78
2021/09/16 10:14:25;;;;;;;0.20;0.20;;;;;;;28.33;31.38;99118.78;5031287;28;20026;-77
2021/09/16 10:16:51;;;;;;;0.10;0.10;;;;;;;28.31;31.76;99112.88;5031418;28;20037;-78
2021/09/16 10:19:16;;;;;;;2.92;2.65;;;;;;;28.35;31.72;99118.38;5031278;28;20055;-77
2021/09/16 10:21:43;;;;;;;0.28;0.20;;;;;;;28.33;31.57;99120.72;5030986;28;20028;-78
2021/09/16 10:24:14;;;;;;;0.00;0.00;;;;;;;28.32;31.65;99111.69;5031085;28;20518;-77
2021/09/16 10:26:49;;;;;;;0.10;0.10;;;;;;;28.34;31.04;99116.81;5030824;28;20040;-77
2021/09/16 10:29:26;;;;;;;0.65;0.65;;;;;;;28.38;31.28;99112.06;5031363;28;20025;-77
2021/09/16 10:31:52;;;;;;;;;;;;;;;28.45;30.73;99112.06;5031387;28;20022;-77
2021/09/16 10:34:41;;;;;;;0.10;0.10;;;;;;;28.49;30.54;99106.56;5032810;28;20001;-79
2021/09/16 10:37:20;;;;;;;0.10;0.10;;;;;;;28.51;30.77;99095.94;5035125;28;20030;-78
2021/09/16 10:39:48;;;;;;;0.20;0.20;;;;;;;28.51;30.59;99082.97;5050317;28;20025;-78
2021/09/16 10:42:14;;;;;;;;;;;;;;;28.58;29.69;99093.19;5035340;28;20424;-77
2021/09/16 10:44:40;;;;;;;0.38;0.38;;;;;;;28.53;29.22;99094.38;5034773;28;19947;-78
2021/09/16 10:47:20;;;;;;;0.10;0.10;;;;;;;28.49;29.40;99084.53;5035179;28;20017;-79
2021/09/16 10:49:48;;;;;;;0.15;0.15;;;;;;;28.51;30.23;99082.97;5034750;28;20460;-78
2021/09/16 10:52:13;;;;;;;0.00;0.00;;;;;;;28.55;29.98;99083.75;5035065;28;20365;-78
2021/09/16 10:54:44;;;;;;;0.08;0.08;;;;;;;28.53;29.49;99082.59;5034311;28;20025;-78
2021/09/16 10:57:11;;;;;;;0.20;0.20;;;;;;;28.53;29.10;99085.34;5035097;28;20083;-78
2021/09/16 10:59:52;;;;;;;0.00;0.00;;;;;;;28.56;29.93;99074.31;5034477;28;20061;-77
2021/09/16 11:02:20;;;;;;;0.20;0.20;;;;;;;28.56;30.27;99088.09;5034944;28;20017;-77
2021/09/16 11:05:18;;;;;;;0.00;0.00;;;;;;;28.58;30.17;99073.91;5034635;28;20057;-77
2021/09/16 11:07:52;;;;;;;0.20;0.20;;;;;;;28.62;29.64;99065.66;5034226;28;20029;-77
2021/09/16 11:10:19;;;;;;;0.00;0.00;;;;;;;28.62;29.12;99065.66;5033291;28;20123;-77
2021/09/16 11:13:31;;;;;;;0.07;0.07;;;;;;;28.67;28.70;99070.75;5034395;28;20028;-78
2021/09/16 11:15:57;;;;;;;0.35;0.35;;;;;;;28.71;29.07;99066.03;5033347;28;20022;-77
2021/09/16 11:18:24;;;;;;;0.50;0.50;;;;;;;28.73;29.28;99058.16;5034576;28;20454;-79
2021/09/16 11:20:56;;;;;;;0.00;0.00;;;;;;;28.80;29.25;99051.88;5034153;28;20022;-76
2021/09/16 11:23:21;;;;;;;0.00;0.00;;;;;;;28.84;29.21;99050.66;5034056;28;20480;-79
2021/09/16 11:25:49;;;;;;;0.30;0.20;;;;;;;28.92;29.15;99054.16;5034377;28;20071;-77
2021/09/16 11:28:15;;;;;;;2.85;1.05;;;;;;;28.95;28.16;99055.34;5033906;28;20374;-78
2021/09/16 11:30:43;;;;;;;0.85;0.70;;;;;;;28.96;28.22;99049.41;5033734;28;20025;-78